aviador You're here:

LDRI Decoded Metar

RIJEKA in CROATIA
Report Time2017-09-23 18:00:00
UTC Time2017-09-23 18:24:21
Flight Rules vfr VFR
WindCalm
Visibility9999 m
Phenomena:N/A
Clouds:Scattered 043 Hf
Broken 056 Hf
Expected CloudBase > 2,400 ft AGL from Temp-Dew spread
Ceiling5,600 ft
Temp18°C (ISA +4)
Dew Point12°C (68% RH)
QNH1020 hPa
Density Alt650 ft
Elevation279 ft
Report Wrong Elevation
Raw Report
LDRI 231800Z 00000KT 9999 SCT043 BKN056 18/12 Q1020=

Extra information for LDRI:More info

Metar Taf Metar & Taf Last 4 Metars F.Rules Stats Wind Profile Meteogram Temp Stats Airport Information Weather charts Add Link Nearby VenuesMetar ALERT Operation Metar Decoded Social comments